sensor_id;sensor_type;location;lat;lon;timestamp;temperature;humidity
3727;DHT22;1879;45.876;12.300;2024-02-26T00:00:24;8.30;1.00
3727;DHT22;1879;45.876;12.300;2024-02-26T00:02:52;8.20;1.00
3727;DHT22;1879;45.876;12.300;2024-02-26T00:05:19;8.10;1.00
3727;DHT22;1879;45.876;12.300;2024-02-26T00:07:46;8.10;1.00
3727;DHT22;1879;45.876;12.300;2024-02-26T00:10:14;8.00;1.00
3727;DHT22;1879;45.876;12.300;2024-02-26T00:12:41;8.00;1.00
3727;DHT22;1879;45.876;12.300;2024-02-26T00:15:09;8.00;1.00
3727;DHT22;1879;45.876;12.300;2024-02-26T00:17:36;8.00;1.00
3727;DHT22;1879;45.876;12.300;2024-02-26T00:20:06;7.90;1.00
3727;DHT22;1879;45.876;12.300;2024-02-26T00:22:34;7.80;1.00
3727;DHT22;1879;45.876;12.300;2024-02-26T00:25:01;7.80;1.00
3727;DHT22;1879;45.876;12.300;2024-02-26T00:27:28;7.80;1.00
3727;DHT22;1879;45.876;12.300;2024-02-26T00:29:54;7.80;1.00
3727;DHT22;1879;45.876;12.300;2024-02-26T00:32:21;7.70;2.30
3727;DHT22;1879;45.876;12.300;2024-02-26T00:34:48;7.70;4.00
3727;DHT22;1879;45.876;12.300;2024-02-26T00:37:17;7.70;5.90
3727;DHT22;1879;45.876;12.300;2024-02-26T00:39:44;7.70;1.00
3727;DHT22;1879;45.876;12.300;2024-02-26T00:42:12;7.70;1.00
3727;DHT22;1879;45.876;12.300;2024-02-26T00:44:39;7.70;5.80
3727;DHT22;1879;45.876;12.300;2024-02-26T00:47:06;7.70;1.00
3727;DHT22;1879;45.876;12.300;2024-02-26T00:49:32;7.70;1.00
3727;DHT22;1879;45.876;12.300;2024-02-26T00:51:59;7.70;7.30
3727;DHT22;1879;45.876;12.300;2024-02-26T00:54:28;7.80;6.30
3727;DHT22;1879;45.876;12.300;2024-02-26T00:56:55;7.80;1.00
3727;DHT22;1879;45.876;12.300;2024-02-26T00:59:22;7.80;1.00
3727;DHT22;1879;45.876;12.300;2024-02-26T01:01:48;7.70;1.00
3727;DHT22;1879;45.876;12.300;2024-02-26T01:04:15;7.70;1.30
3727;DHT22;1879;45.876;12.300;2024-02-26T01:06:42;7.70;1.00
3727;DHT22;1879;45.876;12.300;2024-02-26T01:09:09;7.60;2.30
3727;DHT22;1879;45.876;12.300;2024-02-26T01:11:37;7.60;3.80
3727;DHT22;1879;45.876;12.300;2024-02-26T01:14:04;7.60;4.80
3727;DHT22;1879;45.876;12.300;2024-02-26T01:16:31;7.60;6.00
3727;DHT22;1879;45.876;12.300;2024-02-26T01:18:58;7.60;4.60
3727;DHT22;1879;45.876;12.300;2024-02-26T01:21:25;7.60;1.90
3727;DHT22;1879;45.876;12.300;2024-02-26T01:23:54;7.60;2.90
3727;DHT22;1879;45.876;12.300;2024-02-26T01:26:21;7.50;1.00
3727;DHT22;1879;45.876;12.300;2024-02-26T01:28:49;7.50;1.00
3727;DHT22;1879;45.876;12.300;2024-02-26T01:31:16;7.40;1.00
3727;DHT22;1879;45.876;12.300;2024-02-26T01:33:43;7.40;3.30
3727;DHT22;1879;45.876;12.300;2024-02-26T01:36:10;7.30;12.70
3727;DHT22;1879;45.876;12.300;2024-02-26T01:38:37;7.30;8.60
3727;DHT22;1879;45.876;12.300;2024-02-26T01:41:04;7.30;10.20
3727;DHT22;1879;45.876;12.300;2024-02-26T01:43:31;7.20;10.40
3727;DHT22;1879;45.876;12.300;2024-02-26T01:45:59;7.20;37.90
3727;DHT22;1879;45.876;12.300;2024-02-26T01:48:26;7.20;57.20
3727;DHT22;1879;45.876;12.300;2024-02-26T01:50:55;7.30;54.90
3727;DHT22;1879;45.876;12.300;2024-02-26T01:53:22;7.30;73.20
3727;DHT22;1879;45.876;12.300;2024-02-26T01:55:49;7.30;55.30
3727;DHT22;1879;45.876;12.300;2024-02-26T01:58:16;7.40;56.30
3727;DHT22;1879;45.876;12.300;2024-02-26T02:00:43;7.40;54.40
3727;DHT22;1879;45.876;12.300;2024-02-26T02:03:11;7.40;41.00
3727;DHT22;1879;45.876;12.300;2024-02-26T02:05:39;7.40;11.90
3727;DHT22;1879;45.876;12.300;2024-02-26T02:08:08;7.30;10.50
3727;DHT22;1879;45.876;12.300;2024-02-26T02:10:35;7.30;8.10
3727;DHT22;1879;45.876;12.300;2024-02-26T02:13:02;7.30;4.60
3727;DHT22;1879;45.876;12.300;2024-02-26T02:15:29;7.30;11.60
3727;DHT22;1879;45.876;12.300;2024-02-26T02:17:56;7.30;7.20
3727;DHT22;1879;45.876;12.300;2024-02-26T02:20:26;7.40;9.30
3727;DHT22;1879;45.876;12.300;2024-02-26T02:22:58;7.40;5.20
3727;DHT22;1879;45.876;12.300;2024-02-26T02:25:25;7.50;8.20
3727;DHT22;1879;45.876;12.300;2024-02-26T02:27:52;7.50;1.80
3727;DHT22;1879;45.876;12.300;2024-02-26T02:30:21;7.40;1.00
3727;DHT22;1879;45.876;12.300;2024-02-26T02:32:48;7.50;1.10
3727;DHT22;1879;45.876;12.300;2024-02-26T02:35:15;7.50;2.40
3727;DHT22;1879;45.876;12.300;2024-02-26T02:37:43;7.50;1.20
3727;DHT22;1879;45.876;12.300;2024-02-26T02:40:10;7.70;1.00
3727;DHT22;1879;45.876;12.300;2024-02-26T02:42:37;7.70;1.00
3727;DHT22;1879;45.876;12.300;2024-02-26T02:45:05;7.80;1.00
3727;DHT22;1879;45.876;12.300;2024-02-26T02:47:35;7.80;1.00
3727;DHT22;1879;45.876;12.300;2024-02-26T02:50:03;7.90;1.00
3727;DHT22;1879;45.876;12.300;2024-02-26T02:52:30;7.80;1.00
3727;DHT22;1879;45.876;12.300;2024-02-26T02:54:58;7.80;1.00
3727;DHT22;1879;45.876;12.300;2024-02-26T02:57:25;7.70;1.00
3727;DHT22;1879;45.876;12.300;2024-02-26T02:59:52;7.70;1.00
3727;DHT22;1879;45.876;12.300;2024-02-26T03:02:19;7.70;1.00
3727;DHT22;1879;45.876;12.300;2024-02-26T03:04:46;7.60;1.00
3727;DHT22;1879;45.876;12.300;2024-02-26T03:07:13;7.50;1.00
3727;DHT22;1879;45.876;12.300;2024-02-26T03:09:40;7.40;1.00
3727;DHT22;1879;45.876;12.300;2024-02-26T03:12:08;7.30;1.00
3727;DHT22;1879;45.876;12.300;2024-02-26T03:14:35;7.30;8.90
3727;DHT22;1879;45.876;12.300;2024-02-26T03:17:02;7.20;14.00
3727;DHT22;1879;45.876;12.300;2024-02-26T03:19:29;7.10;13.00
3727;DHT22;1879;45.876;12.300;2024-02-26T03:21:56;7.10;15.10
3727;DHT22;1879;45.876;12.300;2024-02-26T03:24:23;7.00;25.20
3727;DHT22;1879;45.876;12.300;2024-02-26T03:26:50;6.90;36.40
3727;DHT22;1879;45.876;12.300;2024-02-26T03:29:19;6.90;38.60
3727;DHT22;1879;45.876;12.300;2024-02-26T03:31:46;6.90;36.90
3727;DHT22;1879;45.876;12.300;2024-02-26T03:34:12;6.90;37.20
3727;DHT22;1879;45.876;12.300;2024-02-26T03:36:40;6.80;35.40
3727;DHT22;1879;45.876;12.300;2024-02-26T03:39:07;6.80;42.50
3727;DHT22;1879;45.876;12.300;2024-02-26T03:41:34;6.80;47.20
3727;DHT22;1879;45.876;12.300;2024-02-26T03:44:01;6.80;50.40
3727;DHT22;1879;45.876;12.300;2024-02-26T03:46:30;6.80;42.50
3727;DHT22;1879;45.876;12.300;2024-02-26T03:48:56;6.80;46.30
3727;DHT22;1879;45.876;12.300;2024-02-26T03:51:23;6.80;56.40
3727;DHT22;1879;45.876;12.300;2024-02-26T03:53:50;6.80;89.50
3727;DHT22;1879;45.876;12.300;2024-02-26T03:56:17;6.80;91.80
3727;DHT22;1879;45.876;12.300;2024-02-26T03:58:44;6.80;95.40
3727;DHT22;1879;45.876;12.300;2024-02-26T04:01:11;6.90;92.80
3727;DHT22;1879;45.876;12.300;2024-02-26T04:03:39;6.90;95.60
3727;DHT22;1879;45.876;12.300;2024-02-26T04:06:08;6.90;99.90
3727;DHT22;1879;45.876;12.300;2024-02-26T04:08:36;7.00;99.90
3727;DHT22;1879;45.876;12.300;2024-02-26T04:11:03;7.00;99.90
3727;DHT22;1879;45.876;12.300;2024-02-26T04:13:32;7.00;99.90
3727;DHT22;1879;45.876;12.300;2024-02-26T04:16:00;7.00;99.90
3727;DHT22;1879;45.876;12.300;2024-02-26T04:18:28;7.00;99.90
3727;DHT22;1879;45.876;12.300;2024-02-26T04:20:56;7.00;99.90
3727;DHT22;1879;45.876;12.300;2024-02-26T04:23:23;7.10;99.90
3727;DHT22;1879;45.876;12.300;2024-02-26T04:25:50;7.10;99.90
3727;DHT22;1879;45.876;12.300;2024-02-26T04:28:18;7.20;97.30
3727;DHT22;1879;45.876;12.300;2024-02-26T04:30:47;7.30;92.60
3727;DHT22;1879;45.876;12.300;2024-02-26T04:33:14;7.30;98.80
3727;DHT22;1879;45.876;12.300;2024-02-26T04:35:41;7.40;93.30
3727;DHT22;1879;45.876;12.300;2024-02-26T04:38:09;7.40;99.10
3727;DHT22;1879;45.876;12.300;2024-02-26T04:40:36;7.40;96.90
3727;DHT22;1879;45.876;12.300;2024-02-26T04:43:03;7.40;90.60
3727;DHT22;1879;45.876;12.300;2024-02-26T04:45:30;7.40;93.00
3727;DHT22;1879;45.876;12.300;2024-02-26T04:47:57;7.40;87.30
3727;DHT22;1879;45.876;12.300;2024-02-26T04:50:24;7.40;85.20
3727;DHT22;1879;45.876;12.300;2024-02-26T04:52:50;7.40;79.30
3727;DHT22;1879;45.876;12.300;2024-02-26T04:55:19;7.40;72.40
3727;DHT22;1879;45.876;12.300;2024-02-26T04:57:46;7.40;64.70
3727;DHT22;1879;45.876;12.300;2024-02-26T05:00:14;7.40;75.20
3727;DHT22;1879;45.876;12.300;2024-02-26T05:02:41;7.30;72.10
3727;DHT22;1879;45.876;12.300;2024-02-26T05:05:08;7.30;86.50
3727;DHT22;1879;45.876;12.300;2024-02-26T05:07:39;7.40;74.30
3727;DHT22;1879;45.876;12.300;2024-02-26T05:10:07;7.40;69.30
3727;DHT22;1879;45.876;12.300;2024-02-26T05:12:35;7.40;65.00
3727;DHT22;1879;45.876;12.300;2024-02-26T05:15:03;7.40;55.60
3727;DHT22;1879;45.876;12.300;2024-02-26T05:17:30;7.40;58.90
3727;DHT22;1879;45.876;12.300;2024-02-26T05:19:57;7.40;61.90
3727;DHT22;1879;45.876;12.300;2024-02-26T05:22:24;7.40;72.20
3727;DHT22;1879;45.876;12.300;2024-02-26T05:24:50;7.40;73.30
3727;DHT22;1879;45.876;12.300;2024-02-26T05:27:18;7.40;85.80
3727;DHT22;1879;45.876;12.300;2024-02-26T05:29:46;7.30;92.70
3727;DHT22;1879;45.876;12.300;2024-02-26T05:32:13;7.20;95.20
3727;DHT22;1879;45.876;12.300;2024-02-26T05:34:40;7.20;97.20
3727;DHT22;1879;45.876;12.300;2024-02-26T05:37:07;7.20;99.90
3727;DHT22;1879;45.876;12.300;2024-02-26T05:39:34;7.20;99.90
3727;DHT22;1879;45.876;12.300;2024-02-26T05:42:01;7.20;99.90
3727;DHT22;1879;45.876;12.300;2024-02-26T05:44:28;7.20;99.90
3727;DHT22;1879;45.876;12.300;2024-02-26T05:46:56;7.20;99.90
3727;DHT22;1879;45.876;12.300;2024-02-26T05:49:23;7.20;98.20
3727;DHT22;1879;45.876;12.300;2024-02-26T05:51:50;7.20;97.70
3727;DHT22;1879;45.876;12.300;2024-02-26T05:54:17;7.20;97.20
3727;DHT22;1879;45.876;12.300;2024-02-26T05:56:44;7.20;98.60
3727;DHT22;1879;45.876;12.300;2024-02-26T05:59:11;7.20;97.30
3727;DHT22;1879;45.876;12.300;2024-02-26T06:01:40;7.20;99.90
3727;DHT22;1879;45.876;12.300;2024-02-26T06:04:09;7.30;99.90
3727;DHT22;1879;45.876;12.300;2024-02-26T06:06:36;7.30;96.50
3727;DHT22;1879;45.876;12.300;2024-02-26T06:09:03;7.40;91.50
3727;DHT22;1879;45.876;12.300;2024-02-26T06:11:31;7.40;87.00
3727;DHT22;1879;45.876;12.300;2024-02-26T06:13:58;7.40;83.20
3727;DHT22;1879;45.876;12.300;2024-02-26T06:16:25;7.50;69.70
3727;DHT22;1879;45.876;12.300;2024-02-26T06:18:52;7.50;63.30
3727;DHT22;1879;45.876;12.300;2024-02-26T06:21:20;7.40;65.70
3727;DHT22;1879;45.876;12.300;2024-02-26T06:23:47;7.40;65.80
3727;DHT22;1879;45.876;12.300;2024-02-26T06:26:14;7.50;68.50
3727;DHT22;1879;45.876;12.300;2024-02-26T06:28:41;7.50;46.70
3727;DHT22;1879;45.876;12.300;2024-02-26T06:31:08;7.50;45.50
3727;DHT22;1879;45.876;12.300;2024-02-26T06:33:35;7.60;43.70
3727;DHT22;1879;45.876;12.300;2024-02-26T06:36:03;7.60;45.80
3727;DHT22;1879;45.876;12.300;2024-02-26T06:38:31;7.60;42.00
3727;DHT22;1879;45.876;12.300;2024-02-26T06:40:58;7.70;41.50
3727;DHT22;1879;45.876;12.300;2024-02-26T06:43:25;7.80;30.00
3727;DHT22;1879;45.876;12.300;2024-02-26T06:45:52;7.90;16.50
3727;DHT22;1879;45.876;12.300;2024-02-26T06:48:19;8.00;8.90
3727;DHT22;1879;45.876;12.300;2024-02-26T06:50:46;8.10;1.00
3727;DHT22;1879;45.876;12.300;2024-02-26T06:53:12;8.20;1.00
3727;DHT22;1879;45.876;12.300;2024-02-26T06:55:41;8.30;1.00
3727;DHT22;1879;45.876;12.300;2024-02-26T06:58:08;8.40;1.00
3727;DHT22;1879;45.876;12.300;2024-02-26T07:00:35;8.50;1.00
3727;DHT22;1879;45.876;12.300;2024-02-26T07:03:02;8.50;1.00
3727;DHT22;1879;45.876;12.300;2024-02-26T07:05:29;8.60;1.00
3727;DHT22;1879;45.876;12.300;2024-02-26T07:07:56;8.70;1.00
3727;DHT22;1879;45.876;12.300;2024-02-26T07:10:23;8.80;1.00
3727;DHT22;1879;45.876;12.300;2024-02-26T07:12:51;8.90;1.00
3727;DHT22;1879;45.876;12.300;2024-02-26T07:15:18;9.00;1.00
3727;DHT22;1879;45.876;12.300;2024-02-26T07:17:45;9.10;1.00
3727;DHT22;1879;45.876;12.300;2024-02-26T07:20:14;9.20;1.00
3727;DHT22;1879;45.876;12.300;2024-02-26T07:22:41;9.20;1.00
3727;DHT22;1879;45.876;12.300;2024-02-26T07:25:08;9.30;1.00
3727;DHT22;1879;45.876;12.300;2024-02-26T07:27:39;9.40;1.00
3727;DHT22;1879;45.876;12.300;2024-02-26T07:30:09;9.50;1.00
3727;DHT22;1879;45.876;12.300;2024-02-26T07:32:36;9.50;1.00
3727;DHT22;1879;45.876;12.300;2024-02-26T07:35:04;9.60;1.00
3727;DHT22;1879;45.876;12.300;2024-02-26T07:37:31;9.70;1.00
3727;DHT22;1879;45.876;12.300;2024-02-26T07:39:58;9.80;1.00
3727;DHT22;1879;45.876;12.300;2024-02-26T07:42:24;9.90;1.00
3727;DHT22;1879;45.876;12.300;2024-02-26T07:44:51;10.00;1.00
3727;DHT22;1879;45.876;12.300;2024-02-26T07:47:20;10.00;1.00
3727;DHT22;1879;45.876;12.300;2024-02-26T07:49:47;10.10;1.00
3727;DHT22;1879;45.876;12.300;2024-02-26T07:52:14;10.10;1.00
3727;DHT22;1879;45.876;12.300;2024-02-26T07:54:41;10.10;1.00
3727;DHT22;1879;45.876;12.300;2024-02-26T07:57:08;10.10;1.00
3727;DHT22;1879;45.876;12.300;2024-02-26T07:59:34;10.10;1.00
3727;DHT22;1879;45.876;12.300;2024-02-26T08:02:01;10.10;1.00
3727;DHT22;1879;45.876;12.300;2024-02-26T08:04:30;10.00;1.00
3727;DHT22;1879;45.876;12.300;2024-02-26T08:06:57;10.00;1.00
3727;DHT22;1879;45.876;12.300;2024-02-26T08:09:24;10.00;1.00
3727;DHT22;1879;45.876;12.300;2024-02-26T08:11:51;10.00;1.00
3727;DHT22;1879;45.876;12.300;2024-02-26T08:14:18;10.00;1.00
3727;DHT22;1879;45.876;12.300;2024-02-26T08:16:45;9.90;1.00
3727;DHT22;1879;45.876;12.300;2024-02-26T08:19:11;9.80;1.00
3727;DHT22;1879;45.876;12.300;2024-02-26T08:21:41;9.80;1.00
3727;DHT22;1879;45.876;12.300;2024-02-26T08:24:08;9.90;1.00
3727;DHT22;1879;45.876;12.300;2024-02-26T08:26:35;9.80;1.00
3727;DHT22;1879;45.876;12.300;2024-02-26T08:29:02;10.20;1.00
3727;DHT22;1879;45.876;12.300;2024-02-26T08:31:29;10.40;1.00
3727;DHT22;1879;45.876;12.300;2024-02-26T08:33:56;10.40;1.00
3727;DHT22;1879;45.876;12.300;2024-02-26T08:36:23;10.40;1.00
3727;DHT22;1879;45.876;12.300;2024-02-26T08:38:52;10.30;1.00
3727;DHT22;1879;45.876;12.300;2024-02-26T08:41:19;10.40;1.00
3727;DHT22;1879;45.876;12.300;2024-02-26T08:43:46;10.30;1.00
3727;DHT22;1879;45.876;12.300;2024-02-26T08:46:12;10.30;1.00
3727;DHT22;1879;45.876;12.300;2024-02-26T08:48:40;10.40;1.00
3727;DHT22;1879;45.876;12.300;2024-02-26T08:51:07;10.50;1.00
3727;DHT22;1879;45.876;12.300;2024-02-26T08:53:34;10.50;1.00
3727;DHT22;1879;45.876;12.300;2024-02-26T08:56:03;10.50;1.00
3727;DHT22;1879;45.876;12.300;2024-02-26T08:58:30;10.50;1.00
3727;DHT22;1879;45.876;12.300;2024-02-26T09:00:57;10.60;1.00
3727;DHT22;1879;45.876;12.300;2024-02-26T09:03:24;10.60;1.00
3727;DHT22;1879;45.876;12.300;2024-02-26T09:05:51;10.70;1.00
3727;DHT22;1879;45.876;12.300;2024-02-26T09:08:18;10.80;1.00
3727;DHT22;1879;45.876;12.300;2024-02-26T09:10:45;10.80;1.00
3727;DHT22;1879;45.876;12.300;2024-02-26T09:13:13;10.80;99.90
3727;DHT22;1879;45.876;12.300;2024-02-26T09:15:40;10.70;99.90
3727;DHT22;1879;45.876;12.300;2024-02-26T09:18:07;10.70;1.00
3727;DHT22;1879;45.876;12.300;2024-02-26T09:20:34;10.80;1.00
3727;DHT22;1879;45.876;12.300;2024-02-26T09:23:01;10.80;1.00
3727;DHT22;1879;45.876;12.300;2024-02-26T09:25:29;10.80;1.00
3727;DHT22;1879;45.876;12.300;2024-02-26T09:27:56;11.00;1.00
3727;DHT22;1879;45.876;12.300;2024-02-26T09:30:24;11.10;99.90
3727;DHT22;1879;45.876;12.300;2024-02-26T09:32:51;11.20;99.90
3727;DHT22;1879;45.876;12.300;2024-02-26T09:35:18;11.30;99.90
3727;DHT22;1879;45.876;12.300;2024-02-26T09:37:46;11.40;99.90
3727;DHT22;1879;45.876;12.300;2024-02-26T09:40:14;11.40;99.90
3727;DHT22;1879;45.876;12.300;2024-02-26T09:42:43;11.50;99.90
3727;DHT22;1879;45.876;12.300;2024-02-26T09:45:17;11.40;99.90
3727;DHT22;1879;45.876;12.300;2024-02-26T09:47:45;11.30;99.90
3727;DHT22;1879;45.876;12.300;2024-02-26T09:50:14;11.30;99.90
3727;DHT22;1879;45.876;12.300;2024-02-26T09:52:43;11.30;99.90
3727;DHT22;1879;45.876;12.300;2024-02-26T09:55:11;11.30;99.90
3727;DHT22;1879;45.876;12.300;2024-02-26T09:57:38;11.20;99.90
3727;DHT22;1879;45.876;12.300;2024-02-26T10:00:10;11.10;99.90
3727;DHT22;1879;45.876;12.300;2024-02-26T10:02:41;11.10;99.90
3727;DHT22;1879;45.876;12.300;2024-02-26T10:05:10;11.00;99.90
3727;DHT22;1879;45.876;12.300;2024-02-26T10:07:39;10.90;1.00
3727;DHT22;1879;45.876;12.300;2024-02-26T10:10:07;10.90;1.00
3727;DHT22;1879;45.876;12.300;2024-02-26T10:12:34;10.80;1.00
3727;DHT22;1879;45.876;12.300;2024-02-26T10:15:01;10.80;1.00
3727;DHT22;1879;45.876;12.300;2024-02-26T10:17:29;10.90;1.00
3727;DHT22;1879;45.876;12.300;2024-02-26T10:20:12;10.90;1.00
3727;DHT22;1879;45.876;12.300;2024-02-26T10:22:41;10.90;1.00
3727;DHT22;1879;45.876;12.300;2024-02-26T10:25:08;10.90;1.00
3727;DHT22;1879;45.876;12.300;2024-02-26T10:27:35;11.00;1.00
3727;DHT22;1879;45.876;12.300;2024-02-26T10:30:03;11.10;1.00
3727;DHT22;1879;45.876;12.300;2024-02-26T10:32:31;11.10;1.00
3727;DHT22;1879;45.876;12.300;2024-02-26T10:34:58;11.20;1.00
3727;DHT22;1879;45.876;12.300;2024-02-26T10:37:27;11.20;1.00
3727;DHT22;1879;45.876;12.300;2024-02-26T10:39:53;11.30;1.00
3727;DHT22;1879;45.876;12.300;2024-02-26T10:42:20;11.30;1.00
3727;DHT22;1879;45.876;12.300;2024-02-26T10:44:47;11.40;1.00
3727;DHT22;1879;45.876;12.300;2024-02-26T10:47:15;11.40;1.00
3727;DHT22;1879;45.876;12.300;2024-02-26T10:49:46;11.60;1.00
3727;DHT22;1879;45.876;12.300;2024-02-26T10:52:15;11.60;1.00
3727;DHT22;1879;45.876;12.300;2024-02-26T10:54:44;11.70;1.00
3727;DHT22;1879;45.876;12.300;2024-02-26T10:57:15;11.70;1.00
3727;DHT22;1879;45.876;12.300;2024-02-26T10:59:42;11.90;1.00
3727;DHT22;1879;45.876;12.300;2024-02-26T11:02:11;12.00;99.90
3727;DHT22;1879;45.876;12.300;2024-02-26T11:04:40;12.00;99.90
3727;DHT22;1879;45.876;12.300;2024-02-26T11:07:09;12.10;99.90
3727;DHT22;1879;45.876;12.300;2024-02-26T11:09:36;12.20;85.20
3727;DHT22;1879;45.876;12.300;2024-02-26T11:12:10;12.30;94.70
3727;DHT22;1879;45.876;12.300;2024-02-26T11:14:40;12.40;1.00
3727;DHT22;1879;45.876;12.300;2024-02-26T11:17:08;12.50;1.00
3727;DHT22;1879;45.876;12.300;2024-02-26T11:19:36;12.50;99.90
3727;DHT22;1879;45.876;12.300;2024-02-26T11:22:04;12.50;1.00
3727;DHT22;1879;45.876;12.300;2024-02-26T11:24:32;12.50;99.90
3727;DHT22;1879;45.876;12.300;2024-02-26T11:27:02;12.50;99.90
3727;DHT22;1879;45.876;12.300;2024-02-26T11:29:38;12.50;99.90
3727;DHT22;1879;45.876;12.300;2024-02-26T11:32:06;12.60;99.90
3727;DHT22;1879;45.876;12.300;2024-02-26T11:34:34;12.60;99.90
3727;DHT22;1879;45.876;12.300;2024-02-26T11:37:10;12.50;99.90
3727;DHT22;1879;45.876;12.300;2024-02-26T11:39:37;12.60;99.90
3727;DHT22;1879;45.876;12.300;2024-02-26T11:42:06;12.50;66.40
3727;DHT22;1879;45.876;12.300;2024-02-26T11:44:35;12.60;99.90
3727;DHT22;1879;45.876;12.300;2024-02-26T11:47:10;12.60;99.90
3727;DHT22;1879;45.876;12.300;2024-02-26T11:49:37;12.80;1.00
3727;DHT22;1879;45.876;12.300;2024-02-26T11:52:06;12.80;50.40
3727;DHT22;1879;45.876;12.300;2024-02-26T11:54:56;12.80;1.00
3727;DHT22;1879;45.876;12.300;2024-02-26T11:57:25;13.00;1.00
3727;DHT22;1879;45.876;12.300;2024-02-26T11:59:55;13.10;99.90
3727;DHT22;1879;45.876;12.300;2024-02-26T12:02:43;13.30;99.60
3727;DHT22;1879;45.876;12.300;2024-02-26T12:05:11;13.40;1.00
3727;DHT22;1879;45.876;12.300;2024-02-26T12:07:40;13.40;99.90
3727;DHT22;1879;45.876;12.300;2024-02-26T12:10:17;13.30;1.00
3727;DHT22;1879;45.876;12.300;2024-02-26T12:12:47;13.20;1.00
3727;DHT22;1879;45.876;12.300;2024-02-26T12:15:16;13.20;1.00
3727;DHT22;1879;45.876;12.300;2024-02-26T12:17:48;13.30;99.90
3727;DHT22;1879;45.876;12.300;2024-02-26T12:20:17;13.40;99.90
3727;DHT22;1879;45.876;12.300;2024-02-26T12:22:46;13.40;1.00
3727;DHT22;1879;45.876;12.300;2024-02-26T12:25:13;13.30;99.90
3727;DHT22;1879;45.876;12.300;2024-02-26T12:27:40;13.30;99.90
3727;DHT22;1879;45.876;12.300;2024-02-26T12:30:08;13.30;99.90
3727;DHT22;1879;45.876;12.300;2024-02-26T12:32:37;13.30;99.90
3727;DHT22;1879;45.876;12.300;2024-02-26T12:35:05;13.40;99.90
3727;DHT22;1879;45.876;12.300;2024-02-26T12:37:32;13.30;99.90
3727;DHT22;1879;45.876;12.300;2024-02-26T12:40:03;13.20;99.90
3727;DHT22;1879;45.876;12.300;2024-02-26T12:42:32;13.10;99.90
3727;DHT22;1879;45.876;12.300;2024-02-26T12:45:05;13.10;99.90
3727;DHT22;1879;45.876;12.300;2024-02-26T12:47:37;13.20;99.90
3727;DHT22;1879;45.876;12.300;2024-02-26T12:50:06;13.20;99.90
3727;DHT22;1879;45.876;12.300;2024-02-26T12:52:34;13.20;99.90
3727;DHT22;1879;45.876;12.300;2024-02-26T12:55:02;13.20;99.90
3727;DHT22;1879;45.876;12.300;2024-02-26T12:57:30;13.30;99.90
3727;DHT22;1879;45.876;12.300;2024-02-26T12:59:58;13.30;99.90
3727;DHT22;1879;45.876;12.300;2024-02-26T13:02:26;13.30;99.90
3727;DHT22;1879;45.876;12.300;2024-02-26T13:04:55;13.40;99.90
3727;DHT22;1879;45.876;12.300;2024-02-26T13:07:22;13.40;99.90
3727;DHT22;1879;45.876;12.300;2024-02-26T13:09:49;13.30;99.90
3727;DHT22;1879;45.876;12.300;2024-02-26T13:12:16;13.30;99.90
3727;DHT22;1879;45.876;12.300;2024-02-26T13:14:43;13.40;99.90
3727;DHT22;1879;45.876;12.300;2024-02-26T13:17:10;13.40;99.90
3727;DHT22;1879;45.876;12.300;2024-02-26T13:19:37;13.40;99.90
3727;DHT22;1879;45.876;12.300;2024-02-26T13:22:06;13.30;99.90
3727;DHT22;1879;45.876;12.300;2024-02-26T13:24:33;13.30;99.90
3727;DHT22;1879;45.876;12.300;2024-02-26T13:27:00;13.40;99.90
3727;DHT22;1879;45.876;12.300;2024-02-26T13:29:28;13.50;99.90
3727;DHT22;1879;45.876;12.300;2024-02-26T13:31:57;13.50;99.90
3727;DHT22;1879;45.876;12.300;2024-02-26T13:34:24;13.50;99.90
3727;DHT22;1879;45.876;12.300;2024-02-26T13:36:52;13.60;99.90
3727;DHT22;1879;45.876;12.300;2024-02-26T13:39:25;13.60;99.90
3727;DHT22;1879;45.876;12.300;2024-02-26T13:41:52;13.70;99.90
3727;DHT22;1879;45.876;12.300;2024-02-26T13:44:20;13.80;99.90
3727;DHT22;1879;45.876;12.300;2024-02-26T13:46:48;13.80;99.90
3727;DHT22;1879;45.876;12.300;2024-02-26T13:49:15;14.00;99.90
3727;DHT22;1879;45.876;12.300;2024-02-26T13:51:42;14.10;99.90
3727;DHT22;1879;45.876;12.300;2024-02-26T13:54:09;14.10;99.90
3727;DHT22;1879;45.876;12.300;2024-02-26T13:56:38;14.00;99.90
3727;DHT22;1879;45.876;12.300;2024-02-26T13:59:05;13.90;99.90
3727;DHT22;1879;45.876;12.300;2024-02-26T14:01:32;14.10;99.90
3727;DHT22;1879;45.876;12.300;2024-02-26T14:03:59;14.30;99.90
3727;DHT22;1879;45.876;12.300;2024-02-26T14:06:27;14.40;99.90
3727;DHT22;1879;45.876;12.300;2024-02-26T14:08:56;14.50;99.90
3727;DHT22;1879;45.876;12.300;2024-02-26T14:11:23;14.60;99.90
3727;DHT22;1879;45.876;12.300;2024-02-26T14:13:52;14.60;99.90
3727;DHT22;1879;45.876;12.300;2024-02-26T14:16:19;14.70;99.90
3727;DHT22;1879;45.876;12.300;2024-02-26T14:18:46;14.60;99.90
3727;DHT22;1879;45.876;12.300;2024-02-26T14:21:13;14.50;99.90
3727;DHT22;1879;45.876;12.300;2024-02-26T14:23:40;14.50;99.90
3727;DHT22;1879;45.876;12.300;2024-02-26T14:26:10;14.40;99.90
3727;DHT22;1879;45.876;12.300;2024-02-26T14:28:37;14.30;99.90
3727;DHT22;1879;45.876;12.300;2024-02-26T14:31:06;14.30;99.90
3727;DHT22;1879;45.876;12.300;2024-02-26T14:33:37;14.20;99.90
3727;DHT22;1879;45.876;12.300;2024-02-26T14:36:05;14.30;99.90
3727;DHT22;1879;45.876;12.300;2024-02-26T14:38:33;14.40;99.90
3727;DHT22;1879;45.876;12.300;2024-02-26T14:40:59;14.30;99.90
3727;DHT22;1879;45.876;12.300;2024-02-26T14:43:26;14.30;99.90
3727;DHT22;1879;45.876;12.300;2024-02-26T14:45:53;14.20;99.90
3727;DHT22;1879;45.876;12.300;2024-02-26T14:48:22;14.00;99.90
3727;DHT22;1879;45.876;12.300;2024-02-26T14:50:49;13.80;99.90
3727;DHT22;1879;45.876;12.300;2024-02-26T14:53:16;13.70;99.90
3727;DHT22;1879;45.876;12.300;2024-02-26T14:55:43;13.60;99.90
3727;DHT22;1879;45.876;12.300;2024-02-26T14:58:10;13.60;99.90
3727;DHT22;1879;45.876;12.300;2024-02-26T15:00:38;13.50;99.90
3727;DHT22;1879;45.876;12.300;2024-02-26T15:03:05;13.40;99.90
3727;DHT22;1879;45.876;12.300;2024-02-26T15:05:35;13.30;99.90
3727;DHT22;1879;45.876;12.300;2024-02-26T15:08:02;13.20;99.90
3727;DHT22;1879;45.876;12.300;2024-02-26T15:10:29;13.20;99.90
3727;DHT22;1879;45.876;12.300;2024-02-26T15:12:56;13.20;99.90
3727;DHT22;1879;45.876;12.300;2024-02-26T15:15:21;13.30;99.90
3727;DHT22;1879;45.876;12.300;2024-02-26T15:17:49;13.20;99.90
3727;DHT22;1879;45.876;12.300;2024-02-26T15:20:17;13.20;99.90
3727;DHT22;1879;45.876;12.300;2024-02-26T15:22:51;13.00;99.90
3727;DHT22;1879;45.876;12.300;2024-02-26T15:25:18;12.90;99.90
3727;DHT22;1879;45.876;12.300;2024-02-26T15:27:45;12.80;99.90
3727;DHT22;1879;45.876;12.300;2024-02-26T15:30:12;12.70;99.90
3727;DHT22;1879;45.876;12.300;2024-02-26T15:32:39;12.50;99.90
3727;DHT22;1879;45.876;12.300;2024-02-26T15:35:09;12.30;99.90
3727;DHT22;1879;45.876;12.300;2024-02-26T15:37:36;12.30;1.00
3727;DHT22;1879;45.876;12.300;2024-02-26T15:40:06;12.20;1.00
3727;DHT22;1879;45.876;12.300;2024-02-26T15:42:33;12.10;1.00
3727;DHT22;1879;45.876;12.300;2024-02-26T15:45:00;12.00;1.00
3727;DHT22;1879;45.876;12.300;2024-02-26T15:47:27;12.00;1.00
3727;DHT22;1879;45.876;12.300;2024-02-26T15:49:54;12.00;1.00
3727;DHT22;1879;45.876;12.300;2024-02-26T15:52:21;12.00;1.00
3727;DHT22;1879;45.876;12.300;2024-02-26T15:54:48;11.90;1.00
3727;DHT22;1879;45.876;12.300;2024-02-26T15:57:17;11.90;1.00
3727;DHT22;1879;45.876;12.300;2024-02-26T15:59:44;11.90;1.00
3727;DHT22;1879;45.876;12.300;2024-02-26T16:02:13;11.90;1.00